Startpagina
METAR-TAF:

METAR-TAF

Vliegvelden :

Vientiane, Laos

breedte: 17-57N, lengte: 102-34E, hoogte: 171 m

Actueel weer

Dit bericht is 21 minuten geleden gemaakt, om 01:30 UTC
Wind 6 kt uit het oostzuidoosten
Temperatuur 30°C
Vochtigheid 59%
Druk 1009 hPa
Zicht: 6000 m
Gebroken wolken op 4000 ft

METAR: VLVT 290130Z 12006KT 6000 BKN040 30/21 Q1009 NOSIG

Tijdstip: 08:51 (01:51 UTC)

Verwachting

Dit bericht is 2 uur en het 51 minuten geleden gemaakt, om 23:00 UTC
Verwachting geldig van 29 om 00 UTC tot 29 om 24 UTC
Wind 6 kt uit het oostzuidoosten
Zicht: 5000 m
Verspreide wolken op 1600 ft
Gebroken wolken op 5000 ft
Gebroken wolken op 10000 ft
nevel
Tijdelijke
van 29 om 04 UTC tot 29 om 10 UTC
Zicht: 8000 m
Verspreide wolken op 1600 ft
Gebroken wolken op 5000 ft

TAF: VLVT 282300Z 2900/2924 12006KT 5000 BR SCT016 BKN050 BKN100 TEMPO 2904/2910 8000 SCT016 BKN050

Waarnemingen en weersverwachtingen van meer dan 4000 vliegvelden (METAR en TAF).

De beschikbare stations zijn de gele en rode punten op de kaart.

Ga met uw muis naar het station om de naam te zien.

Klik dan om waarnemingen en weersverwachtingen te zien.

kaart wijzigen: klik op de groene knoppen met een zwart kruis om in te zoomen, op de groene knop met een streepje om uit te zoomen of op de groene pijlen voor aangrenzende kaarten.


METAR-TAF: